sensor_id;sensor_type;location;lat;lon;timestamp;P1;durP1;ratioP1;P2;durP2;ratioP2
60582;SDS011;46415;47.536;19.066;2023-02-28T00:01:23;6.43;;;5.32;;
60582;SDS011;46415;47.536;19.066;2023-02-28T00:04:26;33.33;;;5.37;;
60582;SDS011;46415;47.536;19.066;2023-02-28T00:07:29;6.43;;;4.80;;
60582;SDS011;46415;47.536;19.066;2023-02-28T00:10:33;8.02;;;4.75;;
60582;SDS011;46415;47.536;19.066;2023-02-28T00:13:37;9.75;;;4.80;;
60582;SDS011;46415;47.536;19.066;2023-02-28T00:16:41;10.10;;;5.12;;
60582;SDS011;46415;47.536;19.066;2023-02-28T00:19:44;7.68;;;4.93;;
60582;SDS011;46415;47.536;19.066;2023-02-28T00:22:49;9.77;;;4.32;;
60582;SDS011;46415;47.536;19.066;2023-02-28T00:25:53;9.02;;;5.87;;
60582;SDS011;46415;47.536;19.066;2023-02-28T00:28:57;8.35;;;4.80;;
60582;SDS011;46415;47.536;19.066;2023-02-28T00:32:00;7.37;;;5.25;;
60582;SDS011;46415;47.536;19.066;2023-02-28T00:35:03;9.20;;;4.78;;
60582;SDS011;46415;47.536;19.066;2023-02-28T00:38:06;9.60;;;5.90;;
60582;SDS011;46415;47.536;19.066;2023-02-28T00:41:10;9.82;;;5.95;;
60582;SDS011;46415;47.536;19.066;2023-02-28T00:44:12;11.20;;;6.07;;
60582;SDS011;46415;47.536;19.066;2023-02-28T00:47:15;7.03;;;5.43;;
60582;SDS011;46415;47.536;19.066;2023-02-28T00:50:19;10.57;;;4.93;;
60582;SDS011;46415;47.536;19.066;2023-02-28T00:53:22;18.27;;;6.85;;
60582;SDS011;46415;47.536;19.066;2023-02-28T00:56:25;7.70;;;5.25;;
60582;SDS011;46415;47.536;19.066;2023-02-28T00:59:28;7.15;;;5.78;;
60582;SDS011;46415;47.536;19.066;2023-02-28T01:02:30;8.68;;;5.97;;
60582;SDS011;46415;47.536;19.066;2023-02-28T01:05:33;8.38;;;5.10;;
60582;SDS011;46415;47.536;19.066;2023-02-28T01:08:36;9.02;;;5.57;;
60582;SDS011;46415;47.536;19.066;2023-02-28T01:11:39;9.27;;;5.25;;
60582;SDS011;46415;47.536;19.066;2023-02-28T01:14:44;9.52;;;6.05;;
60582;SDS011;46415;47.536;19.066;2023-02-28T01:17:47;6.55;;;4.65;;
60582;SDS011;46415;47.536;19.066;2023-02-28T01:20:50;9.32;;;5.78;;
60582;SDS011;46415;47.536;19.066;2023-02-28T01:23:56;11.38;;;4.85;;
60582;SDS011;46415;47.536;19.066;2023-02-28T01:26:59;10.85;;;5.75;;
60582;SDS011;46415;47.536;19.066;2023-02-28T01:30:02;9.40;;;5.20;;
60582;SDS011;46415;47.536;19.066;2023-02-28T01:33:05;11.32;;;5.50;;
60582;SDS011;46415;47.536;19.066;2023-02-28T01:36:15;8.57;;;4.78;;
60582;SDS011;46415;47.536;19.066;2023-02-28T01:39:20;8.55;;;6.50;;
60582;SDS011;46415;47.536;19.066;2023-02-28T01:42:25;8.88;;;6.07;;
60582;SDS011;46415;47.536;19.066;2023-02-28T01:45:31;11.50;;;5.65;;
60582;SDS011;46415;47.536;19.066;2023-02-28T01:48:35;5.85;;;4.37;;
60582;SDS011;46415;47.536;19.066;2023-02-28T01:51:50;6.43;;;4.93;;
60582;SDS011;46415;47.536;19.066;2023-02-28T01:54:58;10.07;;;4.90;;
60582;SDS011;46415;47.536;19.066;2023-02-28T01:58:04;11.68;;;5.05;;
60582;SDS011;46415;47.536;19.066;2023-02-28T02:01:09;8.13;;;5.30;;
60582;SDS011;46415;47.536;19.066;2023-02-28T02:04:24;8.40;;;4.03;;
60582;SDS011;46415;47.536;19.066;2023-02-28T02:07:36;7.43;;;6.30;;
60582;SDS011;46415;47.536;19.066;2023-02-28T02:10:44;10.70;;;5.45;;
60582;SDS011;46415;47.536;19.066;2023-02-28T02:13:56;9.65;;;5.72;;
60582;SDS011;46415;47.536;19.066;2023-02-28T02:20:46;5.25;;;4.53;;
60582;SDS011;46415;47.536;19.066;2023-02-28T02:44:42;6.80;;;4.60;;
60582;SDS011;46415;47.536;19.066;2023-02-28T02:47:51;7.35;;;5.43;;
60582;SDS011;46415;47.536;19.066;2023-02-28T02:50:55;8.10;;;4.20;;
60582;SDS011;46415;47.536;19.066;2023-02-28T02:54:05;5.55;;;4.32;;
60582;SDS011;46415;47.536;19.066;2023-02-28T02:57:20;5.30;;;4.10;;
60582;SDS011;46415;47.536;19.066;2023-02-28T03:00:32;6.55;;;5.22;;
60582;SDS011;46415;47.536;19.066;2023-02-28T03:03:40;10.23;;;5.70;;
60582;SDS011;46415;47.536;19.066;2023-02-28T03:06:43;8.55;;;4.22;;
60582;SDS011;46415;47.536;19.066;2023-02-28T03:09:53;9.82;;;4.87;;
60582;SDS011;46415;47.536;19.066;2023-02-28T03:13:00;7.60;;;5.22;;
60582;SDS011;46415;47.536;19.066;2023-02-28T03:19:37;13.95;;;5.78;;
60582;SDS011;46415;47.536;19.066;2023-02-28T03:22:59;7.10;;;4.93;;
60582;SDS011;46415;47.536;19.066;2023-02-28T03:26:17;6.65;;;4.43;;
60582;SDS011;46415;47.536;19.066;2023-02-28T03:29:28;6.75;;;3.80;;
60582;SDS011;46415;47.536;19.066;2023-02-28T03:35:57;8.75;;;4.20;;
60582;SDS011;46415;47.536;19.066;2023-02-28T03:39:05;6.53;;;4.20;;
60582;SDS011;46415;47.536;19.066;2023-02-28T03:42:12;12.40;;;4.90;;
60582;SDS011;46415;47.536;19.066;2023-02-28T03:45:29;7.78;;;3.65;;
60582;SDS011;46415;47.536;19.066;2023-02-28T03:48:40;10.38;;;4.90;;
60582;SDS011;46415;47.536;19.066;2023-02-28T03:51:48;6.10;;;3.67;;
60582;SDS011;46415;47.536;19.066;2023-02-28T03:54:54;6.32;;;4.70;;
60582;SDS011;46415;47.536;19.066;2023-02-28T03:58:09;8.35;;;5.05;;
60582;SDS011;46415;47.536;19.066;2023-02-28T04:04:45;5.57;;;3.85;;
60582;SDS011;46415;47.536;19.066;2023-02-28T04:07:50;9.55;;;4.55;;
60582;SDS011;46415;47.536;19.066;2023-02-28T04:11:41;11.85;;;4.07;;
60582;SDS011;46415;47.536;19.066;2023-02-28T04:14:29;8.70;;;3.70;;
60582;SDS011;46415;47.536;19.066;2023-02-28T04:17:32;20.20;;;4.12;;
60582;SDS011;46415;47.536;19.066;2023-02-28T04:20:34;8.98;;;4.22;;
60582;SDS011;46415;47.536;19.066;2023-02-28T04:23:37;5.55;;;3.47;;
60582;SDS011;46415;47.536;19.066;2023-02-28T04:26:41;4.68;;;2.90;;
60582;SDS011;46415;47.536;19.066;2023-02-28T04:29:46;6.53;;;3.40;;
60582;SDS011;46415;47.536;19.066;2023-02-28T04:32:48;7.85;;;3.67;;
60582;SDS011;46415;47.536;19.066;2023-02-28T04:36:02;5.93;;;3.92;;
60582;SDS011;46415;47.536;19.066;2023-02-28T04:39:06;6.30;;;3.75;;
60582;SDS011;46415;47.536;19.066;2023-02-28T04:42:10;7.80;;;4.62;;
60582;SDS011;46415;47.536;19.066;2023-02-28T04:45:13;6.05;;;4.25;;
60582;SDS011;46415;47.536;19.066;2023-02-28T04:48:16;6.85;;;3.37;;
60582;SDS011;46415;47.536;19.066;2023-02-28T04:51:18;6.18;;;3.58;;
60582;SDS011;46415;47.536;19.066;2023-02-28T04:54:22;4.10;;;3.15;;
60582;SDS011;46415;47.536;19.066;2023-02-28T04:57:24;12.13;;;3.83;;
60582;SDS011;46415;47.536;19.066;2023-02-28T05:00:29;4.10;;;2.97;;
60582;SDS011;46415;47.536;19.066;2023-02-28T05:03:32;5.80;;;3.35;;
60582;SDS011;46415;47.536;19.066;2023-02-28T05:06:35;4.45;;;3.22;;
60582;SDS011;46415;47.536;19.066;2023-02-28T05:09:37;5.55;;;3.22;;
60582;SDS011;46415;47.536;19.066;2023-02-28T05:12:40;4.12;;;3.72;;
60582;SDS011;46415;47.536;19.066;2023-02-28T05:15:43;3.20;;;2.75;;
60582;SDS011;46415;47.536;19.066;2023-02-28T05:18:46;4.80;;;3.50;;
60582;SDS011;46415;47.536;19.066;2023-02-28T05:21:50;3.95;;;3.33;;
60582;SDS011;46415;47.536;19.066;2023-02-28T05:24:55;9.60;;;2.95;;
60582;SDS011;46415;47.536;19.066;2023-02-28T05:27:58;3.45;;;3.15;;
60582;SDS011;46415;47.536;19.066;2023-02-28T05:31:01;3.95;;;2.97;;
60582;SDS011;46415;47.536;19.066;2023-02-28T05:34:04;3.55;;;3.25;;
60582;SDS011;46415;47.536;19.066;2023-02-28T05:37:13;3.28;;;2.97;;
60582;SDS011;46415;47.536;19.066;2023-02-28T05:40:17;7.10;;;4.47;;
60582;SDS011;46415;47.536;19.066;2023-02-28T05:43:22;6.22;;;3.42;;
60582;SDS011;46415;47.536;19.066;2023-02-28T05:46:24;4.72;;;2.50;;
60582;SDS011;46415;47.536;19.066;2023-02-28T05:49:27;8.07;;;3.97;;
60582;SDS011;46415;47.536;19.066;2023-02-28T05:52:31;4.22;;;3.60;;
60582;SDS011;46415;47.536;19.066;2023-02-28T05:55:34;2.47;;;2.28;;
60582;SDS011;46415;47.536;19.066;2023-02-28T05:58:38;4.35;;;3.00;;
60582;SDS011;46415;47.536;19.066;2023-02-28T06:01:41;4.03;;;2.92;;
60582;SDS011;46415;47.536;19.066;2023-02-28T06:04:50;7.35;;;3.85;;
60582;SDS011;46415;47.536;19.066;2023-02-28T06:07:53;6.57;;;3.17;;
60582;SDS011;46415;47.536;19.066;2023-02-28T06:10:56;10.35;;;3.58;;
60582;SDS011;46415;47.536;19.066;2023-02-28T06:13:59;8.73;;;3.83;;
60582;SDS011;46415;47.536;19.066;2023-02-28T06:17:03;3.92;;;3.25;;
60582;SDS011;46415;47.536;19.066;2023-02-28T06:20:07;4.47;;;2.62;;
60582;SDS011;46415;47.536;19.066;2023-02-28T06:23:12;3.72;;;3.10;;
60582;SDS011;46415;47.536;19.066;2023-02-28T06:26:14;6.62;;;3.72;;
60582;SDS011;46415;47.536;19.066;2023-02-28T06:29:17;4.03;;;2.83;;
60582;SDS011;46415;47.536;19.066;2023-02-28T06:32:20;6.75;;;2.95;;
60582;SDS011;46415;47.536;19.066;2023-02-28T06:35:24;2.70;;;2.17;;
60582;SDS011;46415;47.536;19.066;2023-02-28T06:38:27;2.87;;;2.50;;
60582;SDS011;46415;47.536;19.066;2023-02-28T06:41:30;3.37;;;2.90;;
60582;SDS011;46415;47.536;19.066;2023-02-28T06:44:53;5.50;;;2.22;;
60582;SDS011;46415;47.536;19.066;2023-02-28T06:47:55;4.62;;;4.15;;
60582;SDS011;46415;47.536;19.066;2023-02-28T06:51:06;6.57;;;2.50;;
60582;SDS011;46415;47.536;19.066;2023-02-28T06:54:11;5.28;;;3.03;;
60582;SDS011;46415;47.536;19.066;2023-02-28T06:57:14;4.90;;;2.62;;
60582;SDS011;46415;47.536;19.066;2023-02-28T07:00:17;4.47;;;2.67;;
60582;SDS011;46415;47.536;19.066;2023-02-28T07:03:22;2.72;;;2.47;;
60582;SDS011;46415;47.536;19.066;2023-02-28T07:06:25;2.50;;;2.30;;
60582;SDS011;46415;47.536;19.066;2023-02-28T07:09:29;6.65;;;2.85;;
60582;SDS011;46415;47.536;19.066;2023-02-28T07:12:32;6.32;;;2.95;;
60582;SDS011;46415;47.536;19.066;2023-02-28T07:15:36;4.20;;;3.30;;
60582;SDS011;46415;47.536;19.066;2023-02-28T07:21:46;4.28;;;2.33;;
60582;SDS011;46415;47.536;19.066;2023-02-28T07:24:49;3.22;;;2.65;;
60582;SDS011;46415;47.536;19.066;2023-02-28T07:27:53;2.60;;;2.40;;
60582;SDS011;46415;47.536;19.066;2023-02-28T07:30:56;7.62;;;3.53;;
60582;SDS011;46415;47.536;19.066;2023-02-28T07:33:59;4.28;;;3.20;;
60582;SDS011;46415;47.536;19.066;2023-02-28T07:37:02;5.07;;;3.03;;
60582;SDS011;46415;47.536;19.066;2023-02-28T07:40:06;7.90;;;3.83;;
60582;SDS011;46415;47.536;19.066;2023-02-28T07:43:12;8.70;;;3.85;;
60582;SDS011;46415;47.536;19.066;2023-02-28T07:46:16;5.57;;;3.08;;
60582;SDS011;46415;47.536;19.066;2023-02-28T07:49:19;5.32;;;3.28;;
60582;SDS011;46415;47.536;19.066;2023-02-28T07:52:22;8.27;;;2.78;;
60582;SDS011;46415;47.536;19.066;2023-02-28T07:55:26;7.57;;;4.05;;
60582;SDS011;46415;47.536;19.066;2023-02-28T07:58:29;3.70;;;3.03;;
60582;SDS011;46415;47.536;19.066;2023-02-28T08:01:32;8.18;;;3.53;;
60582;SDS011;46415;47.536;19.066;2023-02-28T08:04:35;7.90;;;3.12;;
60582;SDS011;46415;47.536;19.066;2023-02-28T08:07:38;8.57;;;3.60;;
60582;SDS011;46415;47.536;19.066;2023-02-28T08:10:41;4.35;;;3.50;;
60582;SDS011;46415;47.536;19.066;2023-02-28T08:13:44;4.35;;;3.12;;
60582;SDS011;46415;47.536;19.066;2023-02-28T08:16:48;7.22;;;3.95;;
60582;SDS011;46415;47.536;19.066;2023-02-28T08:19:50;8.30;;;3.72;;
60582;SDS011;46415;47.536;19.066;2023-02-28T08:22:53;5.93;;;3.60;;
60582;SDS011;46415;47.536;19.066;2023-02-28T08:25:56;7.20;;;3.17;;
60582;SDS011;46415;47.536;19.066;2023-02-28T08:28:59;5.97;;;3.08;;
60582;SDS011;46415;47.536;19.066;2023-02-28T08:32:03;2.97;;;2.62;;
60582;SDS011;46415;47.536;19.066;2023-02-28T08:35:07;6.57;;;3.97;;
60582;SDS011;46415;47.536;19.066;2023-02-28T08:38:11;5.25;;;4.03;;
60582;SDS011;46415;47.536;19.066;2023-02-28T08:41:14;4.35;;;3.45;;
60582;SDS011;46415;47.536;19.066;2023-02-28T08:44:16;4.87;;;3.70;;
60582;SDS011;46415;47.536;19.066;2023-02-28T08:47:19;3.60;;;2.80;;
60582;SDS011;46415;47.536;19.066;2023-02-28T08:50:22;7.78;;;4.05;;
60582;SDS011;46415;47.536;19.066;2023-02-28T08:53:25;5.90;;;3.17;;
60582;SDS011;46415;47.536;19.066;2023-02-28T08:56:28;6.35;;;3.20;;
60582;SDS011;46415;47.536;19.066;2023-02-28T08:59:31;5.03;;;3.55;;
60582;SDS011;46415;47.536;19.066;2023-02-28T09:02:35;3.47;;;2.85;;
60582;SDS011;46415;47.536;19.066;2023-02-28T09:05:39;4.60;;;3.30;;
60582;SDS011;46415;47.536;19.066;2023-02-28T09:08:42;5.15;;;3.40;;
60582;SDS011;46415;47.536;19.066;2023-02-28T09:11:45;3.40;;;2.30;;
60582;SDS011;46415;47.536;19.066;2023-02-28T09:14:48;3.28;;;1.87;;
60582;SDS011;46415;47.536;19.066;2023-02-28T09:17:51;2.17;;;1.98;;
60582;SDS011;46415;47.536;19.066;2023-02-28T09:20:53;3.35;;;2.67;;
60582;SDS011;46415;47.536;19.066;2023-02-28T09:23:56;3.87;;;2.58;;
60582;SDS011;46415;47.536;19.066;2023-02-28T09:26:59;4.82;;;2.83;;
60582;SDS011;46415;47.536;19.066;2023-02-28T09:30:07;4.05;;;2.58;;
60582;SDS011;46415;47.536;19.066;2023-02-28T09:33:10;5.20;;;2.67;;
60582;SDS011;46415;47.536;19.066;2023-02-28T09:36:13;4.53;;;3.00;;
60582;SDS011;46415;47.536;19.066;2023-02-28T09:39:15;3.60;;;2.55;;
60582;SDS011;46415;47.536;19.066;2023-02-28T09:42:21;3.10;;;2.33;;
60582;SDS011;46415;47.536;19.066;2023-02-28T09:45:33;2.60;;;2.40;;
60582;SDS011;46415;47.536;19.066;2023-02-28T09:48:41;2.67;;;1.95;;
60582;SDS011;46415;47.536;19.066;2023-02-28T09:51:50;2.93;;;2.17;;
60582;SDS011;46415;47.536;19.066;2023-02-28T09:54:53;3.50;;;2.78;;
60582;SDS011;46415;47.536;19.066;2023-02-28T09:57:57;3.62;;;2.72;;
60582;SDS011;46415;47.536;19.066;2023-02-28T10:01:49;2.90;;;2.42;;
60582;SDS011;46415;47.536;19.066;2023-02-28T10:11:02;6.28;;;3.47;;
60582;SDS011;46415;47.536;19.066;2023-02-28T10:14:21;6.53;;;2.90;;
60582;SDS011;46415;47.536;19.066;2023-02-28T10:17:29;4.93;;;3.03;;
60582;SDS011;46415;47.536;19.066;2023-02-28T10:20:56;6.82;;;3.65;;
60582;SDS011;46415;47.536;19.066;2023-02-28T10:24:11;3.17;;;2.87;;
60582;SDS011;46415;47.536;19.066;2023-02-28T10:27:23;4.30;;;2.90;;
60582;SDS011;46415;47.536;19.066;2023-02-28T10:30:28;8.07;;;3.28;;
60582;SDS011;46415;47.536;19.066;2023-02-28T10:33:32;3.42;;;2.35;;
60582;SDS011;46415;47.536;19.066;2023-02-28T10:36:36;4.12;;;2.85;;
60582;SDS011;46415;47.536;19.066;2023-02-28T10:39:43;5.20;;;2.90;;
60582;SDS011;46415;47.536;19.066;2023-02-28T10:43:02;4.10;;;3.33;;
60582;SDS011;46415;47.536;19.066;2023-02-28T10:46:11;7.43;;;3.00;;
60582;SDS011;46415;47.536;19.066;2023-02-28T10:49:22;3.15;;;2.70;;
60582;SDS011;46415;47.536;19.066;2023-02-28T10:55:38;4.03;;;2.80;;
60582;SDS011;46415;47.536;19.066;2023-02-28T10:58:49;3.37;;;2.55;;
60582;SDS011;46415;47.536;19.066;2023-02-28T11:01:58;6.82;;;2.72;;
60582;SDS011;46415;47.536;19.066;2023-02-28T11:05:01;5.60;;;2.87;;
60582;SDS011;46415;47.536;19.066;2023-02-28T11:08:17;4.20;;;2.50;;
60582;SDS011;46415;47.536;19.066;2023-02-28T11:11:21;3.17;;;2.58;;
60582;SDS011;46415;47.536;19.066;2023-02-28T11:14:27;3.62;;;3.25;;
60582;SDS011;46415;47.536;19.066;2023-02-28T11:17:33;2.92;;;2.47;;
60582;SDS011;46415;47.536;19.066;2023-02-28T11:20:36;3.17;;;2.70;;
60582;SDS011;46415;47.536;19.066;2023-02-28T11:23:40;6.22;;;3.62;;
60582;SDS011;46415;47.536;19.066;2023-02-28T11:26:45;4.60;;;2.97;;
60582;SDS011;46415;47.536;19.066;2023-02-28T11:29:53;4.78;;;3.25;;
60582;SDS011;46415;47.536;19.066;2023-02-28T11:32:56;3.97;;;2.70;;
60582;SDS011;46415;47.536;19.066;2023-02-28T11:36:01;4.30;;;2.97;;
60582;SDS011;46415;47.536;19.066;2023-02-28T11:39:13;4.75;;;3.58;;
60582;SDS011;46415;47.536;19.066;2023-02-28T11:42:27;6.20;;;3.67;;
60582;SDS011;46415;47.536;19.066;2023-02-28T11:49:27;7.03;;;4.00;;
60582;SDS011;46415;47.536;19.066;2023-02-28T11:52:55;6.37;;;4.05;;
60582;SDS011;46415;47.536;19.066;2023-02-28T11:56:04;5.50;;;4.30;;
60582;SDS011;46415;47.536;19.066;2023-02-28T12:09:51;6.68;;;4.20;;
60582;SDS011;46415;47.536;19.066;2023-02-28T12:13:18;6.57;;;4.40;;
60582;SDS011;46415;47.536;19.066;2023-02-28T12:16:55;5.53;;;3.85;;
60582;SDS011;46415;47.536;19.066;2023-02-28T12:29:36;5.07;;;4.30;;
60582;SDS011;46415;47.536;19.066;2023-02-28T12:32:49;6.57;;;4.57;;
60582;SDS011;46415;47.536;19.066;2023-02-28T12:36:01;5.57;;;4.30;;
60582;SDS011;46415;47.536;19.066;2023-02-28T12:39:14;7.37;;;4.50;;
60582;SDS011;46415;47.536;19.066;2023-02-28T12:42:39;4.60;;;3.55;;
60582;SDS011;46415;47.536;19.066;2023-02-28T12:45:46;6.75;;;4.20;;
60582;SDS011;46415;47.536;19.066;2023-02-28T12:48:52;5.00;;;4.37;;
60582;SDS011;46415;47.536;19.066;2023-02-28T12:51:59;5.62;;;3.78;;
60582;SDS011;46415;47.536;19.066;2023-02-28T12:55:05;5.20;;;4.05;;
60582;SDS011;46415;47.536;19.066;2023-02-28T12:58:23;8.85;;;3.92;;
60582;SDS011;46415;47.536;19.066;2023-02-28T13:08:30;6.47;;;3.80;;
60582;SDS011;46415;47.536;19.066;2023-02-28T13:11:41;5.12;;;3.72;;
60582;SDS011;46415;47.536;19.066;2023-02-28T13:14:47;4.47;;;4.05;;
60582;SDS011;46415;47.536;19.066;2023-02-28T13:17:51;4.78;;;3.45;;
60582;SDS011;46415;47.536;19.066;2023-02-28T13:20:56;5.75;;;3.35;;
60582;SDS011;46415;47.536;19.066;2023-02-28T13:24:00;5.30;;;3.65;;
60582;SDS011;46415;47.536;19.066;2023-02-28T13:40:32;7.40;;;3.83;;
60582;SDS011;46415;47.536;19.066;2023-02-28T13:43:59;7.03;;;3.45;;
60582;SDS011;46415;47.536;19.066;2023-02-28T13:47:22;5.50;;;4.07;;
60582;SDS011;46415;47.536;19.066;2023-02-28T13:50:36;4.53;;;3.53;;
60582;SDS011;46415;47.536;19.066;2023-02-28T13:54:03;5.80;;;3.95;;
60582;SDS011;46415;47.536;19.066;2023-02-28T14:07:48;4.90;;;3.50;;
60582;SDS011;46415;47.536;19.066;2023-02-28T14:11:03;4.35;;;3.10;;
60582;SDS011;46415;47.536;19.066;2023-02-28T14:17:36;6.18;;;4.32;;
60582;SDS011;46415;47.536;19.066;2023-02-28T14:20:40;6.03;;;3.67;;
60582;SDS011;46415;47.536;19.066;2023-02-28T14:37:48;4.47;;;3.25;;
60582;SDS011;46415;47.536;19.066;2023-02-28T14:40:52;5.20;;;3.30;;
60582;SDS011;46415;47.536;19.066;2023-02-28T14:43:58;4.25;;;3.10;;
60582;SDS011;46415;47.536;19.066;2023-02-28T14:47:02;3.53;;;3.10;;
60582;SDS011;46415;47.536;19.066;2023-02-28T14:50:17;4.95;;;3.25;;
60582;SDS011;46415;47.536;19.066;2023-02-28T14:53:26;5.40;;;3.08;;
60582;SDS011;46415;47.536;19.066;2023-02-28T14:56:35;7.10;;;3.20;;
60582;SDS011;46415;47.536;19.066;2023-02-28T14:59:39;6.95;;;3.53;;
60582;SDS011;46415;47.536;19.066;2023-02-28T15:02:42;4.12;;;2.92;;
60582;SDS011;46415;47.536;19.066;2023-02-28T15:05:53;3.42;;;3.12;;
60582;SDS011;46415;47.536;19.066;2023-02-28T15:12:32;3.87;;;2.90;;
60582;SDS011;46415;47.536;19.066;2023-02-28T15:22:07;4.00;;;3.10;;
60582;SDS011;46415;47.536;19.066;2023-02-28T15:25:18;5.03;;;2.97;;
60582;SDS011;46415;47.536;19.066;2023-02-28T15:28:23;4.80;;;3.20;;
60582;SDS011;46415;47.536;19.066;2023-02-28T15:31:27;4.90;;;3.72;;
60582;SDS011;46415;47.536;19.066;2023-02-28T15:34:48;4.82;;;3.10;;
60582;SDS011;46415;47.536;19.066;2023-02-28T15:37:56;8.07;;;4.78;;
60582;SDS011;46415;47.536;19.066;2023-02-28T15:40:59;3.85;;;2.60;;
60582;SDS011;46415;47.536;19.066;2023-02-28T15:47:31;7.50;;;3.72;;
60582;SDS011;46415;47.536;19.066;2023-02-28T15:50:35;5.50;;;3.45;;
60582;SDS011;46415;47.536;19.066;2023-02-28T15:56:46;6.00;;;3.67;;
60582;SDS011;46415;47.536;19.066;2023-02-28T15:59:55;6.75;;;3.97;;
60582;SDS011;46415;47.536;19.066;2023-02-28T16:02:59;7.30;;;4.18;;
60582;SDS011;46415;47.536;19.066;2023-02-28T16:09:24;5.12;;;3.25;;
60582;SDS011;46415;47.536;19.066;2023-02-28T16:12:27;5.90;;;3.80;;
60582;SDS011;46415;47.536;19.066;2023-02-28T16:15:35;10.60;;;4.32;;
60582;SDS011;46415;47.536;19.066;2023-02-28T16:18:44;5.18;;;3.90;;
60582;SDS011;46415;47.536;19.066;2023-02-28T16:21:47;4.82;;;3.75;;
60582;SDS011;46415;47.536;19.066;2023-02-28T16:24:51;5.18;;;3.67;;
60582;SDS011;46415;47.536;19.066;2023-02-28T16:27:53;10.88;;;3.72;;
60582;SDS011;46415;47.536;19.066;2023-02-28T16:30:59;4.93;;;3.55;;
60582;SDS011;46415;47.536;19.066;2023-02-28T16:34:05;7.23;;;3.67;;
60582;SDS011;46415;47.536;19.066;2023-02-28T16:37:13;8.50;;;4.25;;
60582;SDS011;46415;47.536;19.066;2023-02-28T16:40:18;7.05;;;3.58;;
60582;SDS011;46415;47.536;19.066;2023-02-28T16:43:24;6.07;;;4.30;;
60582;SDS011;46415;47.536;19.066;2023-02-28T16:46:33;7.07;;;3.42;;
60582;SDS011;46415;47.536;19.066;2023-02-28T16:49:37;5.87;;;3.80;;
60582;SDS011;46415;47.536;19.066;2023-02-28T16:52:40;4.30;;;3.60;;
60582;SDS011;46415;47.536;19.066;2023-02-28T16:55:43;8.40;;;4.07;;
60582;SDS011;46415;47.536;19.066;2023-02-28T16:58:46;7.87;;;3.83;;
60582;SDS011;46415;47.536;19.066;2023-02-28T17:01:50;7.72;;;3.62;;
60582;SDS011;46415;47.536;19.066;2023-02-28T17:04:54;5.47;;;3.53;;
60582;SDS011;46415;47.536;19.066;2023-02-28T17:07:57;5.62;;;3.75;;
60582;SDS011;46415;47.536;19.066;2023-02-28T17:11:00;5.07;;;3.70;;
60582;SDS011;46415;47.536;19.066;2023-02-28T17:14:04;5.53;;;3.53;;
60582;SDS011;46415;47.536;19.066;2023-02-28T17:17:07;5.28;;;3.87;;
60582;SDS011;46415;47.536;19.066;2023-02-28T17:20:13;5.28;;;3.80;;
60582;SDS011;46415;47.536;19.066;2023-02-28T17:23:21;5.47;;;3.85;;
60582;SDS011;46415;47.536;19.066;2023-02-28T17:26:24;8.75;;;4.72;;
60582;SDS011;46415;47.536;19.066;2023-02-28T17:29:27;5.50;;;4.07;;
60582;SDS011;46415;47.536;19.066;2023-02-28T17:32:30;5.80;;;4.05;;
60582;SDS011;46415;47.536;19.066;2023-02-28T17:35:33;6.20;;;4.35;;
60582;SDS011;46415;47.536;19.066;2023-02-28T17:38:36;5.60;;;3.72;;
60582;SDS011;46415;47.536;19.066;2023-02-28T17:41:39;5.15;;;3.60;;
60582;SDS011;46415;47.536;19.066;2023-02-28T17:44:43;6.65;;;4.55;;
60582;SDS011;46415;47.536;19.066;2023-02-28T17:47:47;5.80;;;4.22;;
60582;SDS011;46415;47.536;19.066;2023-02-28T17:50:51;6.87;;;4.50;;
60582;SDS011;46415;47.536;19.066;2023-02-28T17:53:54;6.62;;;4.03;;
60582;SDS011;46415;47.536;19.066;2023-02-28T17:56:56;8.32;;;3.78;;
60582;SDS011;46415;47.536;19.066;2023-02-28T17:59:59;5.87;;;3.78;;
60582;SDS011;46415;47.536;19.066;2023-02-28T18:03:13;5.03;;;4.53;;
60582;SDS011;46415;47.536;19.066;2023-02-28T18:06:17;5.95;;;4.12;;
60582;SDS011;46415;47.536;19.066;2023-02-28T18:09:23;5.45;;;4.45;;
60582;SDS011;46415;47.536;19.066;2023-02-28T18:12:26;6.15;;;3.80;;
60582;SDS011;46415;47.536;19.066;2023-02-28T18:15:29;6.35;;;3.65;;
60582;SDS011;46415;47.536;19.066;2023-02-28T18:18:32;7.07;;;4.62;;
60582;SDS011;46415;47.536;19.066;2023-02-28T18:21:34;7.15;;;4.25;;
60582;SDS011;46415;47.536;19.066;2023-02-28T18:24:37;6.62;;;4.43;;
60582;SDS011;46415;47.536;19.066;2023-02-28T18:27:40;8.10;;;4.45;;
60582;SDS011;46415;47.536;19.066;2023-02-28T18:30:56;6.07;;;4.20;;
60582;SDS011;46415;47.536;19.066;2023-02-28T18:33:59;9.38;;;4.55;;
60582;SDS011;46415;47.536;19.066;2023-02-28T18:37:02;4.95;;;4.45;;
60582;SDS011;46415;47.536;19.066;2023-02-28T18:40:05;7.90;;;4.43;;
60582;SDS011;46415;47.536;19.066;2023-02-28T18:43:10;7.53;;;4.47;;
60582;SDS011;46415;47.536;19.066;2023-02-28T18:46:14;5.47;;;4.28;;
60582;SDS011;46415;47.536;19.066;2023-02-28T18:52:24;7.07;;;4.30;;
60582;SDS011;46415;47.536;19.066;2023-02-28T18:55:27;5.85;;;4.30;;
60582;SDS011;46415;47.536;19.066;2023-02-28T18:58:30;9.48;;;4.72;;
60582;SDS011;46415;47.536;19.066;2023-02-28T19:01:35;6.22;;;4.53;;
60582;SDS011;46415;47.536;19.066;2023-02-28T19:04:39;8.50;;;4.50;;
60582;SDS011;46415;47.536;19.066;2023-02-28T19:07:44;8.10;;;4.22;;
60582;SDS011;46415;47.536;19.066;2023-02-28T19:10:47;5.45;;;4.55;;
60582;SDS011;46415;47.536;19.066;2023-02-28T19:13:50;8.20;;;5.32;;
60582;SDS011;46415;47.536;19.066;2023-02-28T19:16:53;6.62;;;4.53;;
60582;SDS011;46415;47.536;19.066;2023-02-28T19:19:56;9.75;;;6.00;;
60582;SDS011;46415;47.536;19.066;2023-02-28T19:22:59;6.10;;;4.20;;
60582;SDS011;46415;47.536;19.066;2023-02-28T19:26:08;7.85;;;4.82;;
60582;SDS011;46415;47.536;19.066;2023-02-28T19:29:12;7.53;;;4.28;;
60582;SDS011;46415;47.536;19.066;2023-02-28T19:32:15;7.57;;;4.32;;
60582;SDS011;46415;47.536;19.066;2023-02-28T19:35:19;6.22;;;4.50;;
60582;SDS011;46415;47.536;19.066;2023-02-28T19:38:22;8.32;;;4.57;;
60582;SDS011;46415;47.536;19.066;2023-02-28T19:41:25;7.15;;;4.60;;
60582;SDS011;46415;47.536;19.066;2023-02-28T19:44:28;6.03;;;4.43;;
60582;SDS011;46415;47.536;19.066;2023-02-28T19:47:31;8.15;;;4.30;;
60582;SDS011;46415;47.536;19.066;2023-02-28T19:50:35;6.95;;;4.62;;
60582;SDS011;46415;47.536;19.066;2023-02-28T19:53:39;6.82;;;4.75;;
60582;SDS011;46415;47.536;19.066;2023-02-28T19:56:42;9.02;;;4.78;;
60582;SDS011;46415;47.536;19.066;2023-02-28T19:59:45;8.43;;;4.93;;
60582;SDS011;46415;47.536;19.066;2023-02-28T20:02:48;11.23;;;5.20;;
60582;SDS011;46415;47.536;19.066;2023-02-28T20:05:58;7.18;;;5.18;;
60582;SDS011;46415;47.536;19.066;2023-02-28T20:09:02;9.32;;;4.65;;
60582;SDS011;46415;47.536;19.066;2023-02-28T20:12:05;9.82;;;5.97;;
60582;SDS011;46415;47.536;19.066;2023-02-28T20:15:24;8.85;;;5.60;;
60582;SDS011;46415;47.536;19.066;2023-02-28T20:18:27;8.88;;;5.07;;
60582;SDS011;46415;47.536;19.066;2023-02-28T20:21:30;10.95;;;5.05;;
60582;SDS011;46415;47.536;19.066;2023-02-28T20:24:33;9.60;;;5.03;;
60582;SDS011;46415;47.536;19.066;2023-02-28T20:27:35;8.40;;;4.90;;
60582;SDS011;46415;47.536;19.066;2023-02-28T20:30:39;7.82;;;4.95;;
60582;SDS011;46415;47.536;19.066;2023-02-28T20:33:43;9.80;;;5.03;;
60582;SDS011;46415;47.536;19.066;2023-02-28T20:36:48;8.90;;;4.68;;
60582;SDS011;46415;47.536;19.066;2023-02-28T20:39:51;11.52;;;5.43;;
60582;SDS011;46415;47.536;19.066;2023-02-28T20:42:54;8.27;;;5.37;;
60582;SDS011;46415;47.536;19.066;2023-02-28T20:45:57;7.55;;;5.35;;